sensor_id;sensor_type;location;lat;lon;timestamp;temperature;humidity
11840;DHT22;5979;50.800;4.904;2023-04-15T00:00:06;9.10;99.90
11840;DHT22;5979;50.800;4.904;2023-04-15T00:02:31;9.00;99.90
11840;DHT22;5979;50.800;4.904;2023-04-15T00:04:57;9.00;99.90
11840;DHT22;5979;50.800;4.904;2023-04-15T00:07:23;9.00;99.90
11840;DHT22;5979;50.800;4.904;2023-04-15T00:09:48;9.00;99.90
11840;DHT22;5979;50.800;4.904;2023-04-15T00:12:14;9.10;99.90
11840;DHT22;5979;50.800;4.904;2023-04-15T00:14:40;9.10;99.90
11840;DHT22;5979;50.800;4.904;2023-04-15T00:17:06;9.10;99.90
11840;DHT22;5979;50.800;4.904;2023-04-15T00:19:31;9.10;99.90
11840;DHT22;5979;50.800;4.904;2023-04-15T00:21:58;9.20;99.90
11840;DHT22;5979;50.800;4.904;2023-04-15T00:24:24;9.10;99.90
11840;DHT22;5979;50.800;4.904;2023-04-15T00:26:49;9.20;99.90
11840;DHT22;5979;50.800;4.904;2023-04-15T00:29:15;9.20;99.90
11840;DHT22;5979;50.800;4.904;2023-04-15T00:31:41;9.30;99.90
11840;DHT22;5979;50.800;4.904;2023-04-15T00:34:07;9.30;99.90
11840;DHT22;5979;50.800;4.904;2023-04-15T00:36:32;9.30;99.90
11840;DHT22;5979;50.800;4.904;2023-04-15T00:38:59;9.30;99.90
11840;DHT22;5979;50.800;4.904;2023-04-15T00:41:25;9.40;99.90
11840;DHT22;5979;50.800;4.904;2023-04-15T00:43:51;9.40;99.90
11840;DHT22;5979;50.800;4.904;2023-04-15T00:46:18;9.40;99.90
11840;DHT22;5979;50.800;4.904;2023-04-15T00:48:46;9.30;99.90
11840;DHT22;5979;50.800;4.904;2023-04-15T00:51:12;9.20;99.90
11840;DHT22;5979;50.800;4.904;2023-04-15T00:53:38;9.10;99.90
11840;DHT22;5979;50.800;4.904;2023-04-15T00:56:23;9.20;99.90
11840;DHT22;5979;50.800;4.904;2023-04-15T00:58:50;9.20;99.90
11840;DHT22;5979;50.800;4.904;2023-04-15T01:01:25;9.10;99.90
11840;DHT22;5979;50.800;4.904;2023-04-15T01:03:51;9.20;99.90
11840;DHT22;5979;50.800;4.904;2023-04-15T01:06:17;9.20;99.90
11840;DHT22;5979;50.800;4.904;2023-04-15T01:08:43;9.20;99.90
11840;DHT22;5979;50.800;4.904;2023-04-15T01:11:11;9.20;99.90
11840;DHT22;5979;50.800;4.904;2023-04-15T01:13:38;9.10;99.90
11840;DHT22;5979;50.800;4.904;2023-04-15T01:16:04;9.00;99.90
11840;DHT22;5979;50.800;4.904;2023-04-15T01:18:30;9.00;99.90
11840;DHT22;5979;50.800;4.904;2023-04-15T01:20:56;9.00;99.90
11840;DHT22;5979;50.800;4.904;2023-04-15T01:23:22;8.90;99.90
11840;DHT22;5979;50.800;4.904;2023-04-15T01:25:49;8.90;99.90
11840;DHT22;5979;50.800;4.904;2023-04-15T01:28:15;8.90;99.90
11840;DHT22;5979;50.800;4.904;2023-04-15T01:30:41;8.90;99.90
11840;DHT22;5979;50.800;4.904;2023-04-15T01:33:07;9.00;99.90
11840;DHT22;5979;50.800;4.904;2023-04-15T01:35:33;9.00;99.90
11840;DHT22;5979;50.800;4.904;2023-04-15T01:38:06;9.00;99.90
11840;DHT22;5979;50.800;4.904;2023-04-15T01:40:33;9.10;99.90
11840;DHT22;5979;50.800;4.904;2023-04-15T01:43:00;9.10;99.90
11840;DHT22;5979;50.800;4.904;2023-04-15T01:45:25;9.20;99.90
11840;DHT22;5979;50.800;4.904;2023-04-15T01:47:51;9.20;99.90
11840;DHT22;5979;50.800;4.904;2023-04-15T01:50:17;9.20;99.90
11840;DHT22;5979;50.800;4.904;2023-04-15T01:52:45;9.30;99.90
11840;DHT22;5979;50.800;4.904;2023-04-15T01:55:11;9.30;99.90
11840;DHT22;5979;50.800;4.904;2023-04-15T01:57:37;9.30;99.90
11840;DHT22;5979;50.800;4.904;2023-04-15T02:00:03;9.30;99.90
11840;DHT22;5979;50.800;4.904;2023-04-15T02:02:29;9.20;99.90
11840;DHT22;5979;50.800;4.904;2023-04-15T02:04:55;9.20;99.90
11840;DHT22;5979;50.800;4.904;2023-04-15T02:07:21;9.10;99.90
11840;DHT22;5979;50.800;4.904;2023-04-15T02:09:46;9.10;99.90
11840;DHT22;5979;50.800;4.904;2023-04-15T02:12:12;9.10;99.90
11840;DHT22;5979;50.800;4.904;2023-04-15T02:14:38;9.10;99.90
11840;DHT22;5979;50.800;4.904;2023-04-15T02:17:04;9.00;99.90
11840;DHT22;5979;50.800;4.904;2023-04-15T02:19:35;9.00;99.90
11840;DHT22;5979;50.800;4.904;2023-04-15T02:22:00;9.00;99.90
11840;DHT22;5979;50.800;4.904;2023-04-15T02:24:28;9.00;99.90
11840;DHT22;5979;50.800;4.904;2023-04-15T02:26:54;9.10;99.90
11840;DHT22;5979;50.800;4.904;2023-04-15T02:29:20;9.00;99.90
11840;DHT22;5979;50.800;4.904;2023-04-15T02:31:47;9.00;99.90
11840;DHT22;5979;50.800;4.904;2023-04-15T02:34:13;9.00;99.90
11840;DHT22;5979;50.800;4.904;2023-04-15T02:36:39;9.00;99.90
11840;DHT22;5979;50.800;4.904;2023-04-15T02:39:05;8.90;99.90
11840;DHT22;5979;50.800;4.904;2023-04-15T02:41:31;9.00;99.90
11840;DHT22;5979;50.800;4.904;2023-04-15T02:43:57;9.00;99.90
11840;DHT22;5979;50.800;4.904;2023-04-15T02:46:22;9.00;99.90
11840;DHT22;5979;50.800;4.904;2023-04-15T02:48:49;9.00;99.90
11840;DHT22;5979;50.800;4.904;2023-04-15T02:51:16;8.90;99.90
11840;DHT22;5979;50.800;4.904;2023-04-15T02:53:44;8.90;99.90
11840;DHT22;5979;50.800;4.904;2023-04-15T02:56:10;8.90;99.90
11840;DHT22;5979;50.800;4.904;2023-04-15T02:58:36;9.00;99.90
11840;DHT22;5979;50.800;4.904;2023-04-15T03:01:02;9.10;99.90
11840;DHT22;5979;50.800;4.904;2023-04-15T03:03:27;9.00;99.90
11840;DHT22;5979;50.800;4.904;2023-04-15T03:05:53;9.00;99.90
11840;DHT22;5979;50.800;4.904;2023-04-15T03:08:19;9.00;99.90
11840;DHT22;5979;50.800;4.904;2023-04-15T03:10:47;9.10;99.90
11840;DHT22;5979;50.800;4.904;2023-04-15T03:13:13;9.10;99.90
11840;DHT22;5979;50.800;4.904;2023-04-15T03:15:39;9.10;99.90
11840;DHT22;5979;50.800;4.904;2023-04-15T03:18:04;9.10;99.90
11840;DHT22;5979;50.800;4.904;2023-04-15T03:20:30;9.10;99.90
11840;DHT22;5979;50.800;4.904;2023-04-15T03:22:56;9.10;99.90
11840;DHT22;5979;50.800;4.904;2023-04-15T03:25:22;9.10;99.90
11840;DHT22;5979;50.800;4.904;2023-04-15T03:27:48;9.10;99.90
11840;DHT22;5979;50.800;4.904;2023-04-15T03:30:13;9.10;99.90
11840;DHT22;5979;50.800;4.904;2023-04-15T03:32:39;9.00;99.90
11840;DHT22;5979;50.800;4.904;2023-04-15T03:35:05;9.00;99.90
11840;DHT22;5979;50.800;4.904;2023-04-15T03:37:31;9.00;99.90
11840;DHT22;5979;50.800;4.904;2023-04-15T03:39:57;8.90;99.90
11840;DHT22;5979;50.800;4.904;2023-04-15T03:42:22;9.00;99.90
11840;DHT22;5979;50.800;4.904;2023-04-15T03:44:48;9.00;99.90
11840;DHT22;5979;50.800;4.904;2023-04-15T03:47:14;9.00;99.90
11840;DHT22;5979;50.800;4.904;2023-04-15T03:49:40;9.00;99.90
11840;DHT22;5979;50.800;4.904;2023-04-15T03:52:05;9.00;99.90
11840;DHT22;5979;50.800;4.904;2023-04-15T03:54:31;9.00;99.90
11840;DHT22;5979;50.800;4.904;2023-04-15T03:56:57;9.00;99.90
11840;DHT22;5979;50.800;4.904;2023-04-15T03:59:22;9.00;99.90
11840;DHT22;5979;50.800;4.904;2023-04-15T04:01:48;9.00;99.90
11840;DHT22;5979;50.800;4.904;2023-04-15T04:04:14;9.00;99.90
11840;DHT22;5979;50.800;4.904;2023-04-15T04:06:40;9.00;99.90
11840;DHT22;5979;50.800;4.904;2023-04-15T04:09:06;9.00;99.90
11840;DHT22;5979;50.800;4.904;2023-04-15T04:11:31;9.00;99.90
11840;DHT22;5979;50.800;4.904;2023-04-15T04:13:57;9.00;99.90
11840;DHT22;5979;50.800;4.904;2023-04-15T04:16:23;8.90;99.90
11840;DHT22;5979;50.800;4.904;2023-04-15T04:18:49;8.90;99.90
11840;DHT22;5979;50.800;4.904;2023-04-15T04:21:15;8.90;99.90
11840;DHT22;5979;50.800;4.904;2023-04-15T04:23:41;8.90;99.90
11840;DHT22;5979;50.800;4.904;2023-04-15T04:26:07;8.90;99.90
11840;DHT22;5979;50.800;4.904;2023-04-15T04:28:32;8.90;99.90
11840;DHT22;5979;50.800;4.904;2023-04-15T04:30:59;8.90;99.90
11840;DHT22;5979;50.800;4.904;2023-04-15T04:33:25;9.00;99.90
11840;DHT22;5979;50.800;4.904;2023-04-15T04:35:51;9.00;99.90
11840;DHT22;5979;50.800;4.904;2023-04-15T04:38:17;9.00;99.90
11840;DHT22;5979;50.800;4.904;2023-04-15T04:40:43;9.00;99.90
11840;DHT22;5979;50.800;4.904;2023-04-15T04:43:08;9.00;99.90
11840;DHT22;5979;50.800;4.904;2023-04-15T04:45:34;9.00;99.90
11840;DHT22;5979;50.800;4.904;2023-04-15T04:48:00;9.00;99.90
11840;DHT22;5979;50.800;4.904;2023-04-15T04:50:26;9.00;99.90
11840;DHT22;5979;50.800;4.904;2023-04-15T04:52:52;9.00;99.90
11840;DHT22;5979;50.800;4.904;2023-04-15T04:55:17;9.00;99.90
11840;DHT22;5979;50.800;4.904;2023-04-15T04:57:43;8.90;99.90
11840;DHT22;5979;50.800;4.904;2023-04-15T05:00:09;8.90;99.90
11840;DHT22;5979;50.800;4.904;2023-04-15T05:02:35;8.90;99.90
11840;DHT22;5979;50.800;4.904;2023-04-15T05:05:01;8.90;99.90
11840;DHT22;5979;50.800;4.904;2023-04-15T05:07:27;9.00;99.90
11840;DHT22;5979;50.800;4.904;2023-04-15T05:09:52;9.00;99.90
11840;DHT22;5979;50.800;4.904;2023-04-15T05:12:18;9.10;99.90
11840;DHT22;5979;50.800;4.904;2023-04-15T05:14:44;9.10;99.90
11840;DHT22;5979;50.800;4.904;2023-04-15T05:17:11;9.20;99.90
11840;DHT22;5979;50.800;4.904;2023-04-15T05:19:37;9.20;99.90
11840;DHT22;5979;50.800;4.904;2023-04-15T05:22:02;9.20;99.90
11840;DHT22;5979;50.800;4.904;2023-04-15T05:24:28;9.30;99.90
11840;DHT22;5979;50.800;4.904;2023-04-15T05:26:54;9.30;99.90
11840;DHT22;5979;50.800;4.904;2023-04-15T05:29:20;9.30;99.90
11840;DHT22;5979;50.800;4.904;2023-04-15T05:31:46;9.30;99.90
11840;DHT22;5979;50.800;4.904;2023-04-15T05:34:12;9.40;99.90
11840;DHT22;5979;50.800;4.904;2023-04-15T05:36:40;9.40;99.90
11840;DHT22;5979;50.800;4.904;2023-04-15T05:39:09;9.20;99.90
11840;DHT22;5979;50.800;4.904;2023-04-15T05:41:35;9.10;99.90
11840;DHT22;5979;50.800;4.904;2023-04-15T05:44:00;9.10;99.90
11840;DHT22;5979;50.800;4.904;2023-04-15T05:46:26;9.10;99.90
11840;DHT22;5979;50.800;4.904;2023-04-15T05:48:52;9.10;99.90
11840;DHT22;5979;50.800;4.904;2023-04-15T05:51:17;9.20;99.90
11840;DHT22;5979;50.800;4.904;2023-04-15T05:53:43;9.20;99.90
11840;DHT22;5979;50.800;4.904;2023-04-15T05:56:10;9.10;99.90
11840;DHT22;5979;50.800;4.904;2023-04-15T05:58:36;9.20;99.90
11840;DHT22;5979;50.800;4.904;2023-04-15T06:01:03;9.20;99.90
11840;DHT22;5979;50.800;4.904;2023-04-15T06:03:28;9.20;99.90
11840;DHT22;5979;50.800;4.904;2023-04-15T06:05:54;9.20;99.90
11840;DHT22;5979;50.800;4.904;2023-04-15T06:08:20;9.20;99.90
11840;DHT22;5979;50.800;4.904;2023-04-15T06:10:46;9.30;99.90
11840;DHT22;5979;50.800;4.904;2023-04-15T06:13:12;9.30;99.90
11840;DHT22;5979;50.800;4.904;2023-04-15T06:15:38;9.30;99.90
11840;DHT22;5979;50.800;4.904;2023-04-15T06:18:04;9.30;99.90
11840;DHT22;5979;50.800;4.904;2023-04-15T06:20:29;9.30;99.90
11840;DHT22;5979;50.800;4.904;2023-04-15T06:22:56;9.40;99.90
11840;DHT22;5979;50.800;4.904;2023-04-15T06:25:22;9.50;99.90
11840;DHT22;5979;50.800;4.904;2023-04-15T06:27:48;9.50;99.90
11840;DHT22;5979;50.800;4.904;2023-04-15T06:30:14;9.50;99.90
11840;DHT22;5979;50.800;4.904;2023-04-15T06:32:39;9.50;99.90
11840;DHT22;5979;50.800;4.904;2023-04-15T06:35:05;9.70;99.90
11840;DHT22;5979;50.800;4.904;2023-04-15T06:37:31;9.70;99.90
11840;DHT22;5979;50.800;4.904;2023-04-15T06:39:57;9.80;99.90
11840;DHT22;5979;50.800;4.904;2023-04-15T06:42:23;9.90;99.90
11840;DHT22;5979;50.800;4.904;2023-04-15T06:44:48;10.10;99.90
11840;DHT22;5979;50.800;4.904;2023-04-15T06:47:14;10.20;99.90
11840;DHT22;5979;50.800;4.904;2023-04-15T06:49:40;10.20;99.90
11840;DHT22;5979;50.800;4.904;2023-04-15T06:52:08;10.30;99.90
11840;DHT22;5979;50.800;4.904;2023-04-15T06:54:34;10.40;99.90
11840;DHT22;5979;50.800;4.904;2023-04-15T06:57:00;10.70;99.90
11840;DHT22;5979;50.800;4.904;2023-04-15T06:59:26;11.00;99.90
11840;DHT22;5979;50.800;4.904;2023-04-15T07:01:51;11.20;99.90
11840;DHT22;5979;50.800;4.904;2023-04-15T07:04:17;11.40;99.90
11840;DHT22;5979;50.800;4.904;2023-04-15T07:06:43;11.30;99.90
11840;DHT22;5979;50.800;4.904;2023-04-15T07:09:09;11.40;99.90
11840;DHT22;5979;50.800;4.904;2023-04-15T07:11:35;11.50;99.90
11840;DHT22;5979;50.800;4.904;2023-04-15T07:14:01;11.60;99.90
11840;DHT22;5979;50.800;4.904;2023-04-15T07:16:26;11.90;99.90
11840;DHT22;5979;50.800;4.904;2023-04-15T07:18:52;12.00;99.90
11840;DHT22;5979;50.800;4.904;2023-04-15T07:21:18;12.00;99.90
11840;DHT22;5979;50.800;4.904;2023-04-15T07:23:44;11.80;99.90
11840;DHT22;5979;50.800;4.904;2023-04-15T07:26:10;11.80;99.90
11840;DHT22;5979;50.800;4.904;2023-04-15T07:28:36;11.90;99.90
11840;DHT22;5979;50.800;4.904;2023-04-15T07:31:01;11.90;99.90
11840;DHT22;5979;50.800;4.904;2023-04-15T07:33:27;11.80;99.90
11840;DHT22;5979;50.800;4.904;2023-04-15T07:35:53;11.90;99.90
11840;DHT22;5979;50.800;4.904;2023-04-15T07:38:18;12.10;99.90
11840;DHT22;5979;50.800;4.904;2023-04-15T07:40:45;12.30;99.90
11840;DHT22;5979;50.800;4.904;2023-04-15T07:43:11;12.40;99.90
11840;DHT22;5979;50.800;4.904;2023-04-15T07:45:37;12.50;99.90
11840;DHT22;5979;50.800;4.904;2023-04-15T07:48:04;12.70;99.90
11840;DHT22;5979;50.800;4.904;2023-04-15T07:50:31;12.80;99.90
11840;DHT22;5979;50.800;4.904;2023-04-15T07:52:56;12.90;99.90
11840;DHT22;5979;50.800;4.904;2023-04-15T07:55:22;12.90;99.90
11840;DHT22;5979;50.800;4.904;2023-04-15T07:57:49;12.70;99.90
11840;DHT22;5979;50.800;4.904;2023-04-15T08:00:15;12.80;99.90
11840;DHT22;5979;50.800;4.904;2023-04-15T08:02:41;13.00;99.90
11840;DHT22;5979;50.800;4.904;2023-04-15T08:05:08;13.20;99.90
11840;DHT22;5979;50.800;4.904;2023-04-15T08:07:36;13.30;99.90
11840;DHT22;5979;50.800;4.904;2023-04-15T08:10:03;13.40;99.90
11840;DHT22;5979;50.800;4.904;2023-04-15T08:12:28;13.50;99.90
11840;DHT22;5979;50.800;4.904;2023-04-15T08:14:54;13.50;99.90
11840;DHT22;5979;50.800;4.904;2023-04-15T08:17:21;13.60;99.90
11840;DHT22;5979;50.800;4.904;2023-04-15T08:19:47;13.70;99.90
11840;DHT22;5979;50.800;4.904;2023-04-15T08:22:13;14.00;99.90
11840;DHT22;5979;50.800;4.904;2023-04-15T08:24:39;14.10;99.90
11840;DHT22;5979;50.800;4.904;2023-04-15T08:27:05;13.80;99.90
11840;DHT22;5979;50.800;4.904;2023-04-15T08:29:32;13.70;99.90
11840;DHT22;5979;50.800;4.904;2023-04-15T08:32:01;13.70;99.90
11840;DHT22;5979;50.800;4.904;2023-04-15T08:34:28;13.80;99.90
11840;DHT22;5979;50.800;4.904;2023-04-15T08:36:53;13.80;99.90
11840;DHT22;5979;50.800;4.904;2023-04-15T08:39:20;13.90;99.90
11840;DHT22;5979;50.800;4.904;2023-04-15T08:42:07;14.10;99.90
11840;DHT22;5979;50.800;4.904;2023-04-15T08:44:36;14.10;99.90
11840;DHT22;5979;50.800;4.904;2023-04-15T08:47:03;14.00;99.90
11840;DHT22;5979;50.800;4.904;2023-04-15T08:49:31;14.10;99.90
11840;DHT22;5979;50.800;4.904;2023-04-15T08:51:59;14.30;99.90
11840;DHT22;5979;50.800;4.904;2023-04-15T08:54:26;14.30;99.90
11840;DHT22;5979;50.800;4.904;2023-04-15T08:56:52;14.40;99.90
11840;DHT22;5979;50.800;4.904;2023-04-15T08:59:20;14.60;99.90
11840;DHT22;5979;50.800;4.904;2023-04-15T09:01:47;14.70;99.90
11840;DHT22;5979;50.800;4.904;2023-04-15T09:04:13;14.50;99.90
11840;DHT22;5979;50.800;4.904;2023-04-15T09:06:39;14.70;99.90
11840;DHT22;5979;50.800;4.904;2023-04-15T09:09:06;14.90;99.90
11840;DHT22;5979;50.800;4.904;2023-04-15T09:11:31;15.10;99.90
11840;DHT22;5979;50.800;4.904;2023-04-15T09:13:57;15.20;99.90
11840;DHT22;5979;50.800;4.904;2023-04-15T09:16:23;15.00;99.90
11840;DHT22;5979;50.800;4.904;2023-04-15T09:18:49;15.00;99.90
11840;DHT22;5979;50.800;4.904;2023-04-15T09:21:16;14.90;99.90
11840;DHT22;5979;50.800;4.904;2023-04-15T09:23:56;14.90;99.90
11840;DHT22;5979;50.800;4.904;2023-04-15T09:26:33;14.90;99.90
11840;DHT22;5979;50.800;4.904;2023-04-15T09:29:17;15.00;99.90
11840;DHT22;5979;50.800;4.904;2023-04-15T09:31:43;15.00;99.90
11840;DHT22;5979;50.800;4.904;2023-04-15T09:34:08;14.90;99.90
11840;DHT22;5979;50.800;4.904;2023-04-15T09:36:56;15.00;99.90
11840;DHT22;5979;50.800;4.904;2023-04-15T09:39:22;15.10;99.90
11840;DHT22;5979;50.800;4.904;2023-04-15T09:42:07;15.20;99.90
11840;DHT22;5979;50.800;4.904;2023-04-15T09:44:33;15.20;99.90
11840;DHT22;5979;50.800;4.904;2023-04-15T09:46:58;15.10;99.90
11840;DHT22;5979;50.800;4.904;2023-04-15T09:49:24;15.30;99.90
11840;DHT22;5979;50.800;4.904;2023-04-15T09:51:49;15.20;99.90
11840;DHT22;5979;50.800;4.904;2023-04-15T09:54:20;15.30;99.90
11840;DHT22;5979;50.800;4.904;2023-04-15T09:56:46;15.50;99.90
11840;DHT22;5979;50.800;4.904;2023-04-15T09:59:13;15.30;99.90
11840;DHT22;5979;50.800;4.904;2023-04-15T10:01:39;15.20;99.90
11840;DHT22;5979;50.800;4.904;2023-04-15T10:04:08;15.20;99.90
11840;DHT22;5979;50.800;4.904;2023-04-15T10:06:53;15.30;99.90
11840;DHT22;5979;50.800;4.904;2023-04-15T10:09:18;15.20;99.90
11840;DHT22;5979;50.800;4.904;2023-04-15T10:11:45;15.20;99.90
11840;DHT22;5979;50.800;4.904;2023-04-15T10:14:13;15.30;99.90
11840;DHT22;5979;50.800;4.904;2023-04-15T10:16:40;15.30;99.90
11840;DHT22;5979;50.800;4.904;2023-04-15T10:19:08;15.20;99.90
11840;DHT22;5979;50.800;4.904;2023-04-15T10:21:36;15.30;99.90
11840;DHT22;5979;50.800;4.904;2023-04-15T10:24:02;15.40;99.90
11840;DHT22;5979;50.800;4.904;2023-04-15T10:26:28;15.40;99.90
11840;DHT22;5979;50.800;4.904;2023-04-15T10:28:55;15.30;99.90
11840;DHT22;5979;50.800;4.904;2023-04-15T10:31:22;15.40;99.90
11840;DHT22;5979;50.800;4.904;2023-04-15T10:33:48;15.60;99.90
11840;DHT22;5979;50.800;4.904;2023-04-15T10:36:16;15.60;99.90
11840;DHT22;5979;50.800;4.904;2023-04-15T10:38:44;15.70;99.90
11840;DHT22;5979;50.800;4.904;2023-04-15T10:44:01;15.40;99.90
11840;DHT22;5979;50.800;4.904;2023-04-15T10:46:43;15.40;99.90
11840;DHT22;5979;50.800;4.904;2023-04-15T10:49:17;15.40;99.90
11840;DHT22;5979;50.800;4.904;2023-04-15T10:51:58;15.50;99.90
11840;DHT22;5979;50.800;4.904;2023-04-15T10:59:31;15.70;99.90
11840;DHT22;5979;50.800;4.904;2023-04-15T11:02:01;15.70;99.90
11840;DHT22;5979;50.800;4.904;2023-04-15T11:04:52;15.60;99.90
11840;DHT22;5979;50.800;4.904;2023-04-15T11:07:37;15.40;99.90
11840;DHT22;5979;50.800;4.904;2023-04-15T11:12:42;15.50;99.90
11840;DHT22;5979;50.800;4.904;2023-04-15T11:17:54;15.40;99.90
11840;DHT22;5979;50.800;4.904;2023-04-15T11:20:19;15.30;99.90
11840;DHT22;5979;50.800;4.904;2023-04-15T11:22:52;15.50;99.90
11840;DHT22;5979;50.800;4.904;2023-04-15T11:25:26;15.70;99.90
11840;DHT22;5979;50.800;4.904;2023-04-15T11:27:53;15.70;99.90
11840;DHT22;5979;50.800;4.904;2023-04-15T11:30:20;15.70;99.90
11840;DHT22;5979;50.800;4.904;2023-04-15T11:32:47;15.80;99.90
11840;DHT22;5979;50.800;4.904;2023-04-15T11:35:13;15.90;99.90
11840;DHT22;5979;50.800;4.904;2023-04-15T11:37:39;15.90;99.90
11840;DHT22;5979;50.800;4.904;2023-04-15T11:40:05;16.10;99.90
11840;DHT22;5979;50.800;4.904;2023-04-15T11:42:32;16.00;99.90
11840;DHT22;5979;50.800;4.904;2023-04-15T11:45:12;15.90;99.90
11840;DHT22;5979;50.800;4.904;2023-04-15T11:47:39;15.90;99.90
11840;DHT22;5979;50.800;4.904;2023-04-15T11:50:15;15.80;99.90
11840;DHT22;5979;50.800;4.904;2023-04-15T11:52:56;15.80;99.90
11840;DHT22;5979;50.800;4.904;2023-04-15T11:55:23;15.80;99.90
11840;DHT22;5979;50.800;4.904;2023-04-15T11:58:15;15.90;99.90
11840;DHT22;5979;50.800;4.904;2023-04-15T12:00:54;16.00;99.90
11840;DHT22;5979;50.800;4.904;2023-04-15T12:13:54;15.80;99.90
11840;DHT22;5979;50.800;4.904;2023-04-15T12:16:21;15.90;99.90
11840;DHT22;5979;50.800;4.904;2023-04-15T12:18:51;15.90;99.90
11840;DHT22;5979;50.800;4.904;2023-04-15T12:21:20;16.00;99.90
11840;DHT22;5979;50.800;4.904;2023-04-15T12:23:51;16.00;99.90
11840;DHT22;5979;50.800;4.904;2023-04-15T12:26:18;16.00;99.90
11840;DHT22;5979;50.800;4.904;2023-04-15T12:28:53;15.80;99.90
11840;DHT22;5979;50.800;4.904;2023-04-15T12:31:20;15.90;99.90
11840;DHT22;5979;50.800;4.904;2023-04-15T12:33:48;15.90;99.90
11840;DHT22;5979;50.800;4.904;2023-04-15T12:36:14;15.90;99.90
11840;DHT22;5979;50.800;4.904;2023-04-15T12:38:41;15.90;99.90
11840;DHT22;5979;50.800;4.904;2023-04-15T12:41:06;15.90;99.90
11840;DHT22;5979;50.800;4.904;2023-04-15T12:43:32;15.80;99.90
11840;DHT22;5979;50.800;4.904;2023-04-15T12:45:58;15.70;99.90
11840;DHT22;5979;50.800;4.904;2023-04-15T12:48:23;15.80;99.90
11840;DHT22;5979;50.800;4.904;2023-04-15T12:50:49;15.70;99.90
11840;DHT22;5979;50.800;4.904;2023-04-15T12:53:15;15.70;99.90
11840;DHT22;5979;50.800;4.904;2023-04-15T12:55:41;15.70;99.90
11840;DHT22;5979;50.800;4.904;2023-04-15T12:58:07;15.70;99.90
11840;DHT22;5979;50.800;4.904;2023-04-15T13:00:34;15.60;99.90
11840;DHT22;5979;50.800;4.904;2023-04-15T13:03:00;15.60;99.90
11840;DHT22;5979;50.800;4.904;2023-04-15T13:05:25;15.50;99.90
11840;DHT22;5979;50.800;4.904;2023-04-15T13:07:51;15.50;99.90
11840;DHT22;5979;50.800;4.904;2023-04-15T13:10:17;15.40;99.90
11840;DHT22;5979;50.800;4.904;2023-04-15T13:12:42;15.40;99.90
11840;DHT22;5979;50.800;4.904;2023-04-15T13:15:11;15.40;99.90
11840;DHT22;5979;50.800;4.904;2023-04-15T13:17:37;15.40;99.90
11840;DHT22;5979;50.800;4.904;2023-04-15T13:20:03;15.40;99.90
11840;DHT22;5979;50.800;4.904;2023-04-15T13:22:29;15.40;99.90
11840;DHT22;5979;50.800;4.904;2023-04-15T13:24:55;15.40;99.90
11840;DHT22;5979;50.800;4.904;2023-04-15T13:27:21;15.40;99.90
11840;DHT22;5979;50.800;4.904;2023-04-15T13:29:47;15.40;99.90
11840;DHT22;5979;50.800;4.904;2023-04-15T13:32:13;15.40;99.90
11840;DHT22;5979;50.800;4.904;2023-04-15T13:34:39;15.40;99.90
11840;DHT22;5979;50.800;4.904;2023-04-15T13:37:08;15.30;99.90
11840;DHT22;5979;50.800;4.904;2023-04-15T13:39:34;15.40;99.90
11840;DHT22;5979;50.800;4.904;2023-04-15T13:42:00;15.40;99.90
11840;DHT22;5979;50.800;4.904;2023-04-15T13:44:25;15.40;99.90
11840;DHT22;5979;50.800;4.904;2023-04-15T13:46:51;15.40;99.90
11840;DHT22;5979;50.800;4.904;2023-04-15T13:49:17;15.30;99.90
11840;DHT22;5979;50.800;4.904;2023-04-15T13:51:43;15.30;99.90
11840;DHT22;5979;50.800;4.904;2023-04-15T13:54:08;15.30;99.90
11840;DHT22;5979;50.800;4.904;2023-04-15T13:56:34;15.40;99.90
11840;DHT22;5979;50.800;4.904;2023-04-15T13:59:00;15.40;99.90
11840;DHT22;5979;50.800;4.904;2023-04-15T14:01:28;15.40;99.90
11840;DHT22;5979;50.800;4.904;2023-04-15T14:03:54;15.40;99.90
11840;DHT22;5979;50.800;4.904;2023-04-15T14:06:20;15.40;99.90
11840;DHT22;5979;50.800;4.904;2023-04-15T14:08:45;15.30;99.90
11840;DHT22;5979;50.800;4.904;2023-04-15T14:11:11;15.40;99.90
11840;DHT22;5979;50.800;4.904;2023-04-15T14:13:37;15.50;99.90
11840;DHT22;5979;50.800;4.904;2023-04-15T14:16:03;15.50;99.90
11840;DHT22;5979;50.800;4.904;2023-04-15T14:18:29;15.50;99.90
11840;DHT22;5979;50.800;4.904;2023-04-15T14:20:55;15.50;99.90
11840;DHT22;5979;50.800;4.904;2023-04-15T14:23:22;15.60;99.90
11840;DHT22;5979;50.800;4.904;2023-04-15T14:25:47;15.70;99.90
11840;DHT22;5979;50.800;4.904;2023-04-15T14:28:13;15.60;99.90
11840;DHT22;5979;50.800;4.904;2023-04-15T14:30:39;15.60;99.90
11840;DHT22;5979;50.800;4.904;2023-04-15T14:33:05;15.50;99.90
11840;DHT22;5979;50.800;4.904;2023-04-15T14:35:31;15.40;99.90
11840;DHT22;5979;50.800;4.904;2023-04-15T14:37:57;15.30;99.90
11840;DHT22;5979;50.800;4.904;2023-04-15T14:40:22;15.40;99.90
11840;DHT22;5979;50.800;4.904;2023-04-15T14:42:48;15.40;99.90
11840;DHT22;5979;50.800;4.904;2023-04-15T14:45:14;15.30;99.90
11840;DHT22;5979;50.800;4.904;2023-04-15T14:47:40;15.30;99.90
11840;DHT22;5979;50.800;4.904;2023-04-15T14:50:06;15.30;99.90
11840;DHT22;5979;50.800;4.904;2023-04-15T14:52:32;15.50;99.90
11840;DHT22;5979;50.800;4.904;2023-04-15T14:55:10;15.50;99.90
11840;DHT22;5979;50.800;4.904;2023-04-15T14:57:37;15.60;99.90
11840;DHT22;5979;50.800;4.904;2023-04-15T15:00:04;15.40;99.90
11840;DHT22;5979;50.800;4.904;2023-04-15T15:02:32;15.50;99.90
11840;DHT22;5979;50.800;4.904;2023-04-15T15:05:00;15.40;99.90
11840;DHT22;5979;50.800;4.904;2023-04-15T15:07:25;15.50;99.90
11840;DHT22;5979;50.800;4.904;2023-04-15T15:09:52;15.50;99.90
11840;DHT22;5979;50.800;4.904;2023-04-15T15:12:18;15.40;99.90
11840;DHT22;5979;50.800;4.904;2023-04-15T15:14:43;15.40;99.90
11840;DHT22;5979;50.800;4.904;2023-04-15T15:17:09;15.40;99.90
11840;DHT22;5979;50.800;4.904;2023-04-15T15:19:35;15.30;99.90
11840;DHT22;5979;50.800;4.904;2023-04-15T15:22:02;15.30;99.90
11840;DHT22;5979;50.800;4.904;2023-04-15T15:24:28;15.30;99.90
11840;DHT22;5979;50.800;4.904;2023-04-15T15:26:54;15.20;99.90
11840;DHT22;5979;50.800;4.904;2023-04-15T15:29:20;15.20;99.90
11840;DHT22;5979;50.800;4.904;2023-04-15T15:31:45;15.20;99.90
11840;DHT22;5979;50.800;4.904;2023-04-15T15:34:11;15.10;99.90
11840;DHT22;5979;50.800;4.904;2023-04-15T15:36:37;15.10;99.90
11840;DHT22;5979;50.800;4.904;2023-04-15T15:39:02;15.10;99.90
11840;DHT22;5979;50.800;4.904;2023-04-15T15:41:28;15.00;99.90
11840;DHT22;5979;50.800;4.904;2023-04-15T15:43:54;15.00;99.90
11840;DHT22;5979;50.800;4.904;2023-04-15T15:46:20;14.80;99.90
11840;DHT22;5979;50.800;4.904;2023-04-15T15:48:45;14.70;99.90
11840;DHT22;5979;50.800;4.904;2023-04-15T15:51:11;14.60;99.90
11840;DHT22;5979;50.800;4.904;2023-04-15T15:53:37;14.60;99.90
11840;DHT22;5979;50.800;4.904;2023-04-15T15:56:03;14.50;99.90
11840;DHT22;5979;50.800;4.904;2023-04-15T15:58:30;14.50;99.90
11840;DHT22;5979;50.800;4.904;2023-04-15T16:00:55;14.40;99.90
11840;DHT22;5979;50.800;4.904;2023-04-15T16:03:22;14.30;99.90
11840;DHT22;5979;50.800;4.904;2023-04-15T16:05:48;14.30;99.90
11840;DHT22;5979;50.800;4.904;2023-04-15T16:08:14;14.20;99.90
11840;DHT22;5979;50.800;4.904;2023-04-15T16:10:40;14.20;99.90
11840;DHT22;5979;50.800;4.904;2023-04-15T16:13:06;14.10;99.90